createdAt,value
2023-01-25T00:02:55.955Z,30.92
2023-01-25T00:05:23.036Z,31.50
2023-01-25T00:07:49.709Z,36.72
2023-01-25T00:10:16.413Z,29.80
2023-01-25T00:12:43.438Z,30.95
2023-01-25T00:15:10.867Z,29.92
2023-01-25T00:17:37.789Z,31.50
2023-01-25T00:20:04.981Z,32.53
2023-01-25T00:22:31.629Z,30.83
2023-01-25T00:24:58.394Z,34.33
2023-01-25T00:27:25.325Z,32.97
2023-01-25T00:29:52.043Z,34.63
2023-01-25T00:32:21.901Z,33.78
2023-01-25T00:34:52.589Z,32.58
2023-01-25T00:37:21.657Z,32.20
2023-01-25T00:39:48.522Z,33.05
2023-01-25T00:42:17.054Z,36.42
2023-01-25T00:44:43.862Z,34.10
2023-01-25T00:47:11.429Z,34.47
2023-01-25T00:49:39.907Z,34.63
2023-01-25T00:52:07.795Z,34.65
2023-01-25T00:54:34.551Z,33.58
2023-01-25T00:57:01.487Z,33.45
2023-01-25T00:59:28.210Z,33.22
2023-01-25T01:01:55.025Z,35.90
2023-01-25T01:04:25.237Z,32.67
2023-01-25T01:06:55.325Z,32.80
2023-01-25T01:09:23.881Z,35.33
2023-01-25T01:11:50.836Z,35.15
2023-01-25T01:14:17.900Z,35.20
2023-01-25T01:16:44.653Z,37.60
2023-01-25T01:19:11.559Z,37.05
2023-01-25T01:21:38.514Z,34.17
2023-01-25T01:24:05.771Z,37.13
2023-01-25T01:26:32.676Z,36.55
2023-01-25T01:28:59.644Z,36.90
2023-01-25T01:31:26.831Z,37.22
2023-01-25T01:33:56.309Z,38.10
2023-01-25T01:36:25.848Z,35.75
2023-01-25T01:38:52.675Z,36.45
2023-01-25T01:41:20.239Z,38.55
2023-01-25T01:43:47.603Z,38.42
2023-01-25T01:46:22.372Z,38.28
2023-01-25T01:49:06.948Z,39.58
2023-01-25T01:51:42.727Z,38.97
2023-01-25T01:54:32.563Z,38.78
2023-01-25T01:57:05.475Z,38.95
2023-01-25T01:59:37.731Z,38.83
2023-01-25T02:02:04.724Z,38.83
2023-01-25T02:04:33.046Z,40.55
2023-01-25T02:07:05.933Z,39.50
2023-01-25T02:09:36.201Z,39.13
2023-01-25T02:12:04.591Z,40.63
2023-01-25T02:14:31.569Z,41.08
2023-01-25T02:16:58.621Z,41.85
2023-01-25T02:19:50.249Z,40.50
2023-01-25T02:22:23.132Z,41.70
2023-01-25T02:25:19.890Z,41.70
2023-01-25T02:27:53.814Z,41.17
2023-01-25T02:30:21.134Z,41.58
2023-01-25T02:32:47.876Z,42.08
2023-01-25T02:35:36.838Z,42.70
2023-01-25T02:38:04.498Z,41.38
2023-01-25T02:40:32.928Z,42.33
2023-01-25T02:42:59.678Z,42.78
2023-01-25T02:45:29.777Z,46.65
2023-01-25T02:47:56.445Z,45.47
2023-01-25T02:50:23.304Z,46.75
2023-01-25T02:52:50.044Z,46.50
2023-01-25T02:55:16.722Z,45.80
2023-01-25T02:57:43.669Z,45.67
2023-01-25T03:00:11.140Z,45.10
2023-01-25T03:02:37.925Z,45.13
2023-01-25T03:05:05.072Z,43.53
2023-01-25T03:07:31.813Z,45.70
2023-01-25T03:09:58.453Z,44.83
2023-01-25T03:12:25.351Z,44.20
2023-01-25T03:14:52.048Z,46.17
2023-01-25T03:17:18.757Z,44.92
2023-01-25T03:19:45.887Z,43.50
2023-01-25T03:22:12.568Z,42.70
2023-01-25T03:24:39.363Z,45.13
2023-01-25T03:27:18.579Z,45.05
2023-01-25T03:29:46.091Z,43.65
2023-01-25T03:32:12.907Z,49.35
2023-01-25T03:34:39.760Z,46.75
2023-01-25T03:37:07.103Z,46.65
2023-01-25T03:39:33.880Z,46.20
2023-01-25T03:42:00.737Z,46.47
2023-01-25T03:44:27.505Z,46.90
2023-01-25T03:46:54.199Z,46.63
2023-01-25T03:49:21.090Z,45.55
2023-01-25T03:51:47.892Z,45.55
2023-01-25T03:54:14.642Z,48.42
2023-01-25T03:56:42.662Z,48.08
2023-01-25T03:59:11.354Z,46.75
2023-01-25T04:01:38.399Z,45.83
2023-01-25T04:04:05.169Z,48.03
2023-01-25T04:06:31.924Z,47.85
2023-01-25T04:08:58.690Z,47.28
2023-01-25T04:11:25.450Z,49.70
2023-01-25T04:13:52.200Z,47.45
2023-01-25T04:16:18.920Z,47.88
2023-01-25T04:18:45.713Z,46.80
2023-01-25T04:21:12.438Z,49.92
2023-01-25T04:23:39.099Z,49.67
2023-01-25T04:26:07.857Z,49.35
2023-01-25T04:28:35.751Z,47.95
2023-01-25T04:31:03.750Z,47.78
2023-01-25T04:33:30.761Z,47.78
2023-01-25T04:35:57.745Z,49.63
2023-01-25T04:38:24.825Z,52.38
2023-01-25T04:40:52.670Z,51.80
2023-01-25T04:43:20.852Z,50.00
2023-01-25T04:45:47.728Z,50.78
2023-01-25T04:48:15.327Z,49.35
2023-01-25T04:50:43.177Z,48.78
2023-01-25T04:53:12.043Z,48.33
2023-01-25T04:55:39.676Z,47.22
2023-01-25T04:58:06.885Z,47.42
2023-01-25T05:00:33.681Z,49.75
2023-01-25T05:03:00.431Z,49.97
2023-01-25T05:05:27.375Z,49.05
2023-01-25T05:07:54.058Z,48.67
2023-01-25T05:10:20.834Z,50.90
2023-01-25T05:12:47.587Z,50.60
2023-01-25T05:15:14.564Z,49.72
2023-01-25T05:17:41.465Z,49.17
2023-01-25T05:20:08.664Z,50.60
2023-01-25T05:22:35.405Z,50.97
2023-01-25T05:25:03.920Z,48.88
2023-01-25T05:27:30.653Z,49.22
2023-01-25T05:29:57.874Z,48.85
2023-01-25T05:32:25.122Z,49.30
2023-01-25T05:34:52.031Z,50.25
2023-01-25T05:37:20.504Z,46.97
2023-01-25T05:39:47.451Z,44.90
2023-01-25T05:42:17.158Z,47.10
2023-01-25T05:44:46.125Z,47.03
2023-01-25T05:47:16.217Z,45.92
2023-01-25T05:49:42.866Z,47.40
2023-01-25T05:52:15.325Z,48.83
2023-01-25T05:54:42.281Z,44.60
2023-01-25T05:57:09.063Z,46.00
2023-01-25T05:59:35.794Z,47.25
2023-01-25T06:02:02.616Z,45.00
2023-01-25T06:04:29.458Z,41.90
2023-01-25T06:06:56.122Z,42.15
2023-01-25T06:09:23.611Z,43.05
2023-01-25T06:11:50.409Z,42.72
2023-01-25T06:14:17.330Z,38.50
2023-01-25T06:16:44.259Z,40.10
2023-01-25T06:19:13.381Z,36.67
2023-01-25T06:21:40.010Z,37.75
2023-01-25T06:24:07.557Z,36.40
2023-01-25T06:26:34.253Z,43.65
2023-01-25T06:29:00.927Z,38.60
2023-01-25T06:31:27.920Z,39.92
2023-01-25T06:33:54.632Z,39.67
2023-01-25T06:36:22.602Z,38.47
2023-01-25T06:38:52.978Z,40.22
2023-01-25T06:41:20.507Z,40.38
2023-01-25T06:43:48.171Z,40.38
2023-01-25T06:46:15.412Z,39.33
2023-01-25T06:48:43.144Z,40.13
2023-01-25T06:51:12.501Z,40.05
2023-01-25T06:53:43.935Z,43.47
2023-01-25T06:56:13.299Z,43.35
2023-01-25T06:58:40.588Z,42.83
2023-01-25T07:01:27.870Z,41.05
2023-01-25T07:03:57.400Z,41.75
2023-01-25T07:06:25.677Z,40.47
2023-01-25T07:08:52.689Z,41.97
2023-01-25T07:11:19.596Z,40.25
2023-01-25T07:13:47.767Z,41.83
2023-01-25T07:16:17.516Z,40.90
2023-01-25T07:18:44.592Z,41.15
2023-01-25T07:21:14.342Z,42.00
2023-01-25T07:23:41.764Z,39.90
2023-01-25T07:26:25.311Z,42.47
2023-01-25T07:28:53.214Z,41.47
2023-01-25T07:31:20.845Z,38.78
2023-01-25T07:33:49.748Z,40.10
2023-01-25T07:36:17.107Z,40.15
2023-01-25T07:38:43.933Z,41.00
2023-01-25T07:41:10.987Z,40.80
2023-01-25T07:43:38.096Z,41.10
2023-01-25T07:46:07.712Z,41.22
2023-01-25T07:48:34.749Z,41.07
2023-01-25T07:51:13.175Z,40.38
2023-01-25T07:53:41.495Z,41.10
2023-01-25T07:56:09.823Z,41.65
2023-01-25T07:58:37.067Z,40.22
2023-01-25T08:01:08.568Z,41.78
2023-01-25T08:03:35.257Z,39.35
2023-01-25T08:06:02.039Z,42.67
2023-01-25T08:08:28.971Z,40.13
2023-01-25T08:10:55.613Z,42.38
2023-01-25T08:13:22.532Z,44.40
2023-01-25T08:15:56.143Z,41.03
2023-01-25T08:18:22.970Z,40.80
2023-01-25T08:20:49.748Z,44.97
2023-01-25T08:23:16.780Z,41.75
2023-01-25T08:25:43.585Z,41.95
2023-01-25T08:28:10.512Z,41.53
2023-01-25T08:30:41.236Z,42.97
2023-01-25T08:33:12.955Z,45.70
2023-01-25T08:35:39.949Z,43.83
2023-01-25T08:38:06.767Z,42.55
2023-01-25T08:40:35.864Z,43.38
2023-01-25T08:43:05.057Z,44.25
2023-01-25T08:45:34.692Z,42.78
2023-01-25T08:48:01.911Z,41.27
2023-01-25T08:50:29.264Z,43.40
2023-01-25T08:52:56.411Z,42.20
2023-01-25T08:55:23.088Z,43.55
2023-01-25T08:57:49.877Z,45.50
2023-01-25T09:00:17.686Z,42.92
2023-01-25T09:02:44.379Z,44.97
2023-01-25T09:05:11.085Z,42.58
2023-01-25T09:07:38.978Z,42.72
2023-01-25T09:10:09.283Z,46.97
2023-01-25T09:12:36.504Z,45.08
2023-01-25T09:15:04.072Z,45.03
2023-01-25T09:17:30.768Z,46.13
2023-01-25T09:19:57.573Z,44.25
2023-01-25T09:22:24.364Z,44.97
2023-01-25T09:24:53.956Z,45.25
2023-01-25T09:27:20.816Z,44.60
2023-01-25T09:30:00.927Z,45.55
2023-01-25T09:32:29.111Z,45.58
2023-01-25T09:34:56.184Z,47.28
2023-01-25T09:37:23.117Z,43.47
2023-01-25T09:39:50.272Z,45.97
2023-01-25T09:42:25.181Z,43.47
2023-01-25T09:45:01.988Z,44.83
2023-01-25T09:47:44.298Z,42.55
2023-01-25T09:50:28.185Z,42.95
2023-01-25T09:53:19.823Z,44.85
2023-01-25T09:55:54.375Z,45.55
2023-01-25T09:58:44.876Z,44.83
2023-01-25T10:01:39.314Z,45.30
2023-01-25T10:04:13.356Z,43.60
2023-01-25T10:06:46.055Z,42.75
2023-01-25T10:09:33.288Z,44.38
2023-01-25T10:12:06.700Z,48.28
2023-01-25T10:14:35.820Z,45.38
2023-01-25T10:17:09.587Z,47.58
2023-01-25T10:19:51.338Z,41.88
2023-01-25T10:22:28.937Z,42.28
2023-01-25T10:25:24.563Z,44.83
2023-01-25T10:28:02.787Z,41.80
2023-01-25T10:31:02.240Z,39.45
2023-01-25T10:33:31.406Z,42.80
2023-01-25T10:36:01.733Z,41.17
2023-01-25T10:38:35.164Z,43.50
2023-01-25T10:41:52.783Z,42.15
2023-01-25T10:44:22.595Z,43.42
2023-01-25T10:46:52.280Z,42.85
2023-01-25T10:49:30.997Z,46.97
2023-01-25T10:52:12.612Z,41.92
2023-01-25T10:54:39.512Z,40.67
2023-01-25T10:57:08.312Z,42.75
2023-01-25T10:59:36.611Z,43.17
2023-01-25T11:02:38.352Z,47.20
2023-01-25T11:05:38.092Z,42.33
2023-01-25T11:08:29.982Z,44.65
2023-01-25T11:10:57.466Z,44.75
2023-01-25T11:13:33.547Z,46.50
2023-01-25T11:16:01.605Z,45.42
2023-01-25T11:18:33.917Z,47.75
2023-01-25T11:21:25.847Z,42.65
2023-01-25T11:24:06.450Z,43.33
2023-01-25T11:29:10.907Z,45.53
2023-01-25T11:31:38.388Z,44.83
2023-01-25T11:34:10.330Z,45.15
2023-01-25T11:37:02.222Z,43.30
2023-01-25T11:39:52.935Z,44.47
2023-01-25T11:42:58.681Z,43.53
2023-01-25T11:45:34.563Z,43.65
2023-01-25T11:48:20.322Z,45.47
2023-01-25T11:51:18.883Z,44.85
2023-01-25T11:54:03.864Z,44.15
2023-01-25T11:56:40.195Z,44.25
2023-01-25T11:59:28.152Z,48.63
2023-01-25T12:02:16.734Z,46.83
2023-01-25T12:04:59.762Z,45.72
2023-01-25T12:07:59.397Z,45.30
2023-01-25T12:10:44.068Z,45.08
2023-01-25T12:13:41.254Z,44.65
2023-01-25T12:16:20.483Z,45.88
2023-01-25T12:19:18.171Z,43.83
2023-01-25T12:22:17.207Z,45.40
2023-01-25T12:25:14.984Z,48.17
2023-01-25T12:27:51.058Z,46.85
2023-01-25T12:30:35.463Z,52.03
2023-01-25T12:33:14.328Z,46.40
2023-01-25T12:36:04.716Z,44.47
2023-01-25T12:38:45.313Z,45.13
2023-01-25T12:41:33.421Z,45.75
2023-01-25T12:44:37.855Z,44.30
2023-01-25T12:47:25.940Z,44.92
2023-01-25T12:49:59.339Z,48.17
2023-01-25T12:52:31.984Z,55.70
2023-01-25T12:55:08.330Z,43.30
2023-01-25T12:58:07.564Z,46.15
2023-01-25T13:01:00.976Z,46.08
2023-01-25T13:03:35.351Z,46.00
2023-01-25T13:06:21.335Z,47.45
2023-01-25T13:08:57.195Z,48.72
2023-01-25T13:11:31.214Z,51.10
2023-01-25T13:14:16.421Z,53.03
2023-01-25T13:17:21.322Z,48.55
2023-01-25T13:38:01.149Z,42.78
2023-01-25T13:43:19.651Z,42.58
2023-01-25T13:45:50.554Z,42.85
2023-01-25T13:48:26.311Z,42.80
2023-01-25T13:51:01.906Z,46.88
2023-01-25T13:53:35.473Z,43.88
2023-01-25T13:56:03.438Z,42.05
2023-01-25T13:58:39.102Z,43.55
2023-01-25T14:01:20.720Z,43.95
2023-01-25T14:03:59.817Z,46.25
2023-01-25T14:06:36.290Z,42.42
2023-01-25T14:09:10.477Z,43.45
2023-01-25T14:11:50.006Z,43.92
2023-01-25T14:14:19.268Z,45.83
2023-01-25T14:16:46.987Z,44.83
2023-01-25T14:19:21.537Z,44.85
2023-01-25T14:21:48.235Z,46.67
2023-01-25T14:24:19.318Z,46.42
2023-01-25T14:26:47.926Z,46.72
2023-01-25T14:29:35.419Z,45.92
2023-01-25T14:32:03.241Z,44.97
2023-01-25T14:34:30.056Z,49.63
2023-01-25T14:37:14.386Z,47.72
2023-01-25T14:39:41.155Z,46.30
2023-01-25T14:42:08.235Z,47.33
2023-01-25T14:44:35.252Z,46.78
2023-01-25T14:47:31.311Z,53.53
2023-01-25T14:50:32.105Z,50.03
2023-01-25T14:53:20.856Z,48.83
2023-01-25T14:55:49.432Z,49.78
2023-01-25T14:58:23.655Z,49.35
2023-01-25T15:01:02.850Z,49.28
2023-01-25T15:03:31.240Z,49.10
2023-01-25T15:06:02.864Z,54.67
2023-01-25T15:08:35.873Z,51.13
2023-01-25T15:11:22.075Z,53.78
2023-01-25T15:13:49.140Z,49.65
2023-01-25T15:16:18.864Z,52.88
2023-01-25T15:18:47.478Z,48.58
2023-01-25T15:21:25.599Z,51.95
2023-01-25T15:23:54.297Z,51.40
2023-01-25T15:26:26.205Z,48.88
2023-01-25T15:28:55.498Z,49.97
2023-01-25T15:31:26.578Z,53.03
2023-01-25T15:33:56.888Z,51.92
2023-01-25T15:36:24.472Z,49.83
2023-01-25T15:38:51.949Z,51.75
2023-01-25T15:41:18.804Z,50.70
2023-01-25T15:43:47.074Z,52.08
2023-01-25T15:46:22.012Z,50.90
2023-01-25T15:48:50.663Z,52.70
2023-01-25T15:51:17.401Z,50.97
2023-01-25T15:53:45.155Z,53.88
2023-01-25T15:56:20.837Z,53.75
2023-01-25T15:58:51.230Z,49.17
2023-01-25T16:01:18.901Z,53.17
2023-01-25T16:03:45.724Z,58.45
2023-01-25T16:06:28.554Z,55.28
2023-01-25T16:08:55.880Z,57.20
2023-01-25T16:11:23.133Z,57.13
2023-01-25T16:13:50.012Z,54.28
2023-01-25T16:16:23.375Z,55.17
2023-01-25T16:18:50.172Z,54.78
2023-01-25T16:21:17.133Z,55.80
2023-01-25T16:23:44.026Z,52.88
2023-01-25T16:26:24.489Z,55.63
2023-01-25T16:28:51.815Z,53.80
2023-01-25T16:31:31.207Z,53.42
2023-01-25T16:33:59.341Z,58.83
2023-01-25T16:36:26.207Z,55.53
2023-01-25T16:38:53.192Z,56.67
2023-01-25T16:41:20.087Z,60.08
2023-01-25T16:43:48.720Z,56.25
2023-01-25T16:46:15.503Z,61.75
2023-01-25T16:48:43.280Z,54.83
2023-01-25T16:51:18.219Z,56.47
2023-01-25T16:53:46.298Z,59.03
2023-01-25T16:56:29.524Z,54.88
2023-01-25T16:59:00.428Z,58.35
2023-01-25T17:01:27.701Z,55.30
2023-01-25T17:03:55.788Z,59.92
2023-01-25T17:06:28.514Z,55.97
2023-01-25T17:08:57.910Z,58.22
2023-01-25T17:11:25.219Z,55.78
2023-01-25T17:13:54.808Z,62.67
2023-01-25T17:16:24.086Z,69.57
2023-01-25T17:18:55.798Z,59.60
2023-01-25T17:21:22.874Z,64.80
2023-01-25T17:23:50.470Z,58.45
2023-01-25T17:26:19.658Z,58.78
2023-01-25T17:28:47.033Z,61.80
2023-01-25T17:31:26.621Z,59.97
2023-01-25T17:33:54.351Z,66.77
2023-01-25T17:36:21.273Z,64.70
2023-01-25T17:38:48.582Z,69.60
2023-01-25T17:41:17.114Z,67.03
2023-01-25T17:43:43.926Z,68.80
2023-01-25T17:46:15.062Z,67.15
2023-01-25T17:48:41.910Z,70.05
2023-01-25T17:51:08.891Z,70.22
2023-01-25T17:53:35.833Z,65.18
2023-01-25T17:56:04.681Z,69.22
2023-01-25T17:58:34.173Z,71.55
2023-01-25T18:01:12.967Z,73.03
2023-01-25T18:03:41.855Z,71.05
2023-01-25T18:06:11.975Z,72.65
2023-01-25T18:08:49.580Z,70.90
2023-01-25T18:11:22.637Z,72.03
2023-01-25T18:13:52.645Z,71.90
2023-01-25T18:16:24.128Z,71.22
2023-01-25T18:18:52.400Z,69.90
2023-01-25T18:21:24.312Z,72.05
2023-01-25T18:24:03.490Z,70.65
2023-01-25T18:26:34.655Z,75.32
2023-01-25T18:29:26.559Z,76.68
2023-01-25T18:31:53.383Z,65.15
2023-01-25T18:34:20.365Z,78.63
2023-01-25T18:36:48.686Z,64.80
2023-01-25T18:39:15.428Z,71.97
2023-01-25T18:41:44.647Z,75.18
2023-01-25T18:44:11.578Z,69.13
2023-01-25T18:46:40.534Z,71.00
2023-01-25T18:49:07.343Z,82.10
2023-01-25T18:51:38.916Z,74.57
2023-01-25T18:54:11.135Z,81.10
2023-01-25T18:56:38.022Z,70.47
2023-01-25T18:59:04.811Z,76.35
2023-01-25T19:01:31.848Z,78.72
2023-01-25T19:03:58.721Z,67.65
2023-01-25T19:06:25.681Z,70.88
2023-01-25T19:08:54.377Z,72.93
2023-01-25T19:11:22.277Z,77.15
2023-01-25T19:13:50.143Z,71.90
2023-01-25T19:16:24.599Z,70.32
2023-01-25T19:18:53.379Z,65.70
2023-01-25T19:21:24.940Z,67.85
2023-01-25T19:23:52.806Z,67.68
2023-01-25T19:26:21.512Z,75.22
2023-01-25T19:28:48.427Z,66.82
2023-01-25T19:31:21.309Z,70.32
2023-01-25T19:33:48.731Z,70.30
2023-01-25T19:36:19.122Z,64.75
2023-01-25T19:38:47.673Z,69.80
2023-01-25T19:41:17.892Z,75.80
2023-01-25T19:43:44.801Z,71.10
2023-01-25T19:46:14.275Z,72.25
2023-01-25T19:48:42.251Z,66.85
2023-01-25T19:51:16.895Z,75.45
2023-01-25T19:53:46.556Z,77.72
2023-01-25T19:56:16.218Z,74.00
2023-01-25T19:58:47.584Z,72.10
2023-01-25T20:01:17.205Z,79.32
2023-01-25T20:03:44.068Z,68.23
2023-01-25T20:06:12.349Z,64.05
2023-01-25T20:08:41.848Z,65.40
2023-01-25T20:11:12.479Z,70.18
2023-01-25T20:13:40.517Z,60.97
2023-01-25T20:16:08.216Z,62.97
2023-01-25T20:18:35.072Z,63.90
2023-01-25T20:21:07.836Z,68.97
2023-01-25T20:23:36.863Z,65.93
2023-01-25T20:26:16.444Z,58.60
2023-01-25T20:28:44.832Z,65.53
2023-01-25T20:31:21.489Z,66.82
2023-01-25T20:33:49.318Z,60.10
2023-01-25T20:36:16.644Z,66.70
2023-01-25T20:38:43.786Z,64.13
2023-01-25T20:41:14.277Z,59.05
2023-01-25T20:43:52.301Z,63.72
2023-01-25T20:46:21.030Z,59.00
2023-01-25T20:48:48.309Z,60.88
2023-01-25T20:51:17.312Z,62.08
2023-01-25T20:53:45.789Z,62.80
2023-01-25T20:56:14.104Z,61.95
2023-01-25T20:58:41.797Z,59.28
2023-01-25T21:01:16.588Z,59.83
2023-01-25T21:03:43.455Z,58.80
2023-01-25T21:06:10.488Z,57.88
2023-01-25T21:08:37.211Z,56.75
2023-01-25T21:11:04.476Z,55.90
2023-01-25T21:13:31.545Z,62.13
2023-01-25T21:16:10.884Z,56.63
2023-01-25T21:18:43.645Z,55.38
2023-01-25T21:21:16.428Z,55.42
2023-01-25T21:23:45.143Z,62.75
2023-01-25T21:26:20.931Z,53.08
2023-01-25T21:28:48.822Z,52.15
2023-01-25T21:31:23.798Z,50.28
2023-01-25T21:33:51.234Z,48.63
2023-01-25T21:36:19.082Z,47.78
2023-01-25T21:38:48.149Z,53.08
2023-01-25T21:41:20.095Z,46.95
2023-01-25T21:44:08.682Z,48.40
2023-01-25T21:46:35.969Z,42.97
2023-01-25T21:49:24.678Z,48.25
2023-01-25T21:51:53.694Z,45.15
2023-01-25T21:54:22.765Z,42.03
2023-01-25T21:56:51.548Z,52.60
2023-01-25T21:59:18.410Z,46.13
2023-01-25T22:01:45.832Z,44.85
2023-01-25T22:04:14.105Z,42.63
2023-01-25T22:06:41.735Z,43.58
2023-01-25T22:09:09.377Z,44.33
2023-01-25T22:11:36.840Z,42.88
2023-01-25T22:14:03.575Z,42.45
2023-01-25T22:16:30.596Z,38.25
2023-01-25T22:18:58.028Z,39.67
2023-01-25T22:21:31.199Z,40.08
2023-01-25T22:24:03.355Z,39.35
2023-01-25T22:26:39.270Z,38.22
2023-01-25T22:29:06.751Z,40.25
2023-01-25T22:31:33.795Z,38.85
2023-01-25T22:34:00.898Z,37.33
2023-01-25T22:36:29.600Z,38.75
2023-01-25T22:38:57.181Z,35.25
2023-01-25T22:41:26.825Z,37.53
2023-01-25T22:43:54.643Z,38.00
2023-01-25T22:46:24.399Z,36.30
2023-01-25T22:48:51.221Z,39.70
2023-01-25T22:51:20.875Z,39.28
2023-01-25T22:53:47.899Z,34.47
2023-01-25T22:56:29.143Z,35.08
2023-01-25T22:58:56.132Z,36.25
2023-01-25T23:01:31.423Z,35.58
2023-01-25T23:03:58.845Z,34.95
2023-01-25T23:06:31.275Z,35.17
2023-01-25T23:09:00.165Z,36.70
2023-01-25T23:11:46.950Z,38.28
2023-01-25T23:14:32.331Z,34.25
2023-01-25T23:17:17.648Z,36.28
2023-01-25T23:19:44.585Z,36.35
2023-01-25T23:22:11.340Z,34.75
2023-01-25T23:24:38.027Z,38.28
2023-01-25T23:27:04.846Z,34.42
2023-01-25T23:29:31.842Z,35.30
2023-01-25T23:31:58.548Z,33.08
2023-01-25T23:34:26.194Z,32.38
2023-01-25T23:36:52.903Z,32.85
2023-01-25T23:39:19.720Z,30.92
2023-01-25T23:41:46.568Z,31.83
2023-01-25T23:44:13.385Z,31.42
2023-01-25T23:46:40.173Z,31.38
2023-01-25T23:49:06.961Z,30.60
2023-01-25T23:51:33.800Z,30.35
2023-01-25T23:54:00.408Z,30.80
2023-01-25T23:56:27.614Z,33.83
2023-01-25T23:58:54.301Z,30.52
